createdAt,value
2018-03-26T00:01:45.373Z,6.50
2018-03-26T00:04:14.248Z,6.63
2018-03-26T00:06:43.302Z,8.80
2018-03-26T00:09:12.312Z,9.10
2018-03-26T00:11:41.249Z,7.37
2018-03-26T00:14:10.173Z,8.33
2018-03-26T00:16:40.339Z,8.20
2018-03-26T00:19:09.226Z,9.23
2018-03-26T00:21:38.125Z,8.77
2018-03-26T00:24:07.017Z,9.00
2018-03-26T00:26:35.774Z,9.10
2018-03-26T00:29:05.000Z,8.67
2018-03-26T00:31:33.840Z,7.60
2018-03-26T00:34:03.496Z,8.67
2018-03-26T00:36:32.253Z,7.90
2018-03-26T00:39:02.017Z,7.50
2018-03-26T00:41:31.703Z,7.30
2018-03-26T00:44:00.683Z,8.23
2018-03-26T00:46:29.609Z,8.40
2018-03-26T00:48:59.680Z,7.70
2018-03-26T00:51:28.962Z,8.13
2018-03-26T00:53:57.811Z,7.93
2018-03-26T00:56:26.679Z,7.80
2018-03-26T00:58:55.558Z,8.53
2018-03-26T01:01:24.464Z,7.30
2018-03-26T01:03:53.376Z,7.23
2018-03-26T01:06:22.206Z,7.00
2018-03-26T01:08:51.137Z,7.03
2018-03-26T01:11:20.016Z,6.77
2018-03-26T01:13:49.089Z,7.20
2018-03-26T01:16:17.917Z,7.30
2018-03-26T01:18:46.881Z,7.70
2018-03-26T01:21:15.748Z,7.63
2018-03-26T01:23:45.041Z,9.30
2018-03-26T01:26:13.877Z,7.00
2018-03-26T01:28:43.466Z,7.10
2018-03-26T01:31:12.456Z,6.97
2018-03-26T01:33:41.439Z,7.37
2018-03-26T01:36:11.127Z,7.27
2018-03-26T01:38:40.826Z,7.60
2018-03-26T01:41:09.740Z,7.23
2018-03-26T01:43:38.456Z,7.03
2018-03-26T01:46:07.502Z,7.40
2018-03-26T01:48:36.569Z,7.93
2018-03-26T01:51:05.460Z,7.83
2018-03-26T01:53:34.378Z,7.47
2018-03-26T01:56:03.507Z,8.13
2018-03-26T01:58:32.594Z,8.07
2018-03-26T02:01:01.494Z,7.87
2018-03-26T02:03:31.146Z,9.00
2018-03-26T02:06:00.005Z,8.50
2018-03-26T02:08:28.930Z,9.20
2018-03-26T02:10:57.867Z,8.60
2018-03-26T02:13:26.697Z,8.40
2018-03-26T02:15:55.492Z,7.50
2018-03-26T02:18:24.343Z,7.93
2018-03-26T02:20:53.970Z,8.10
2018-03-26T02:23:22.846Z,8.23
2018-03-26T02:25:51.972Z,8.30
2018-03-26T02:28:21.181Z,8.73
2018-03-26T02:30:51.025Z,7.57
2018-03-26T02:33:19.862Z,7.27
2018-03-26T02:35:48.823Z,7.20
2018-03-26T02:38:17.643Z,7.87
2018-03-26T02:40:46.734Z,8.70
2018-03-26T02:43:15.728Z,8.43
2018-03-26T02:45:44.558Z,8.60
2018-03-26T02:48:13.349Z,8.53
2018-03-26T02:50:42.233Z,7.97
2018-03-26T02:53:11.166Z,8.47
2018-03-26T02:55:40.762Z,8.43
2018-03-26T02:58:09.616Z,8.07
2018-03-26T03:00:38.508Z,7.00
2018-03-26T03:03:07.396Z,7.03
2018-03-26T03:05:36.248Z,7.50
2018-03-26T03:08:05.117Z,7.33
2018-03-26T03:10:34.073Z,7.17
2018-03-26T03:13:02.899Z,6.80
2018-03-26T03:15:31.688Z,6.47
2018-03-26T03:18:01.372Z,7.07
2018-03-26T03:20:30.337Z,5.97
2018-03-26T03:22:59.404Z,5.83
2018-03-26T03:25:29.298Z,6.27
2018-03-26T03:27:58.207Z,5.70
2018-03-26T03:30:28.205Z,6.20
2018-03-26T03:32:57.075Z,6.60
2018-03-26T03:35:26.021Z,5.80
2018-03-26T03:37:55.189Z,6.37
2018-03-26T03:40:24.183Z,5.70
2018-03-26T03:42:53.139Z,6.13
2018-03-26T03:45:22.799Z,5.67
2018-03-26T03:47:51.669Z,6.07
2018-03-26T03:50:20.932Z,8.63
2018-03-26T03:52:49.911Z,9.07
2018-03-26T03:55:19.447Z,7.53
2018-03-26T03:57:48.563Z,6.43
2018-03-26T04:00:18.252Z,6.10
2018-03-26T04:02:47.147Z,5.43
2018-03-26T04:05:16.003Z,6.07
2018-03-26T04:07:44.916Z,6.87
2018-03-26T04:10:13.791Z,7.10
2018-03-26T04:12:42.777Z,7.00
2018-03-26T04:15:11.750Z,9.03
2018-03-26T04:17:41.674Z,6.33
2018-03-26T04:20:10.708Z,6.43
2018-03-26T04:22:39.473Z,6.07
2018-03-26T04:25:09.227Z,7.27
2018-03-26T04:27:38.810Z,6.63
2018-03-26T04:30:07.788Z,5.83
2018-03-26T04:32:36.626Z,6.40
2018-03-26T04:35:06.222Z,6.50
2018-03-26T04:37:35.012Z,7.10
2018-03-26T04:40:03.850Z,7.17
2018-03-26T04:42:32.942Z,7.97
2018-03-26T04:45:01.939Z,7.97
2018-03-26T04:47:30.994Z,7.80
2018-03-26T04:49:59.863Z,7.03
2018-03-26T04:52:29.559Z,6.20
2018-03-26T04:54:58.452Z,7.47
2018-03-26T04:57:27.444Z,6.10
2018-03-26T04:59:56.410Z,6.33
2018-03-26T05:02:25.200Z,9.60
2018-03-26T05:04:55.037Z,7.17
2018-03-26T05:07:23.895Z,6.03
2018-03-26T05:09:52.643Z,6.30
2018-03-26T05:12:21.622Z,6.10
2018-03-26T05:14:50.495Z,6.57
2018-03-26T05:17:19.348Z,7.83
2018-03-26T05:19:48.351Z,8.10
2018-03-26T05:22:17.273Z,8.90
2018-03-26T05:24:46.142Z,8.63
2018-03-26T05:27:15.188Z,9.27
2018-03-26T05:29:44.088Z,11.10
2018-03-26T05:32:12.977Z,9.57
2018-03-26T05:34:42.521Z,9.90
2018-03-26T05:37:11.476Z,10.70
2018-03-26T05:39:40.367Z,11.60
2018-03-26T05:42:10.021Z,9.43
2018-03-26T05:44:38.888Z,10.27
2018-03-26T05:47:08.520Z,9.33
2018-03-26T05:49:37.414Z,9.10
2018-03-26T05:52:06.528Z,10.00
2018-03-26T05:54:35.640Z,9.83
2018-03-26T05:57:04.430Z,11.00
2018-03-26T05:59:34.300Z,8.57
2018-03-26T06:02:03.234Z,10.80
2018-03-26T06:04:32.206Z,11.60
2018-03-26T06:07:01.221Z,12.67
2018-03-26T06:09:30.274Z,13.00
2018-03-26T06:11:59.270Z,12.43
2018-03-26T06:14:28.058Z,11.10
2018-03-26T06:17:08.612Z,14.77
2018-03-26T06:19:37.859Z,15.07
2018-03-26T06:22:07.016Z,13.83
2018-03-26T06:24:35.961Z,28.33
2018-03-26T06:27:05.697Z,20.20
2018-03-26T06:29:35.748Z,22.27
2018-03-26T06:32:04.783Z,22.63
2018-03-26T06:34:33.758Z,17.27
2018-03-26T06:37:18.397Z,17.17
2018-03-26T06:39:48.219Z,17.40
2018-03-26T06:42:17.342Z,14.23
2018-03-26T06:44:46.378Z,15.07
2018-03-26T06:47:15.420Z,15.50
2018-03-26T06:49:44.272Z,17.67
2018-03-26T06:52:13.233Z,13.03
2018-03-26T06:54:42.165Z,12.50
2018-03-26T06:57:11.060Z,12.03
2018-03-26T06:59:40.109Z,18.17
2018-03-26T07:02:08.884Z,14.80
2018-03-26T07:04:38.805Z,14.53
2018-03-26T07:07:08.396Z,12.63
2018-03-26T07:09:37.434Z,10.73
2018-03-26T07:12:06.568Z,11.70
2018-03-26T07:14:35.629Z,12.47
2018-03-26T07:17:05.485Z,13.93
2018-03-26T07:19:34.289Z,15.17
2018-03-26T07:22:03.868Z,12.67
2018-03-26T07:24:32.612Z,15.03
2018-03-26T07:27:01.502Z,15.40
2018-03-26T07:29:30.350Z,16.60
2018-03-26T07:32:00.263Z,16.73
2018-03-26T07:34:29.257Z,14.60
2018-03-26T07:36:58.970Z,15.37
2018-03-26T07:39:27.828Z,15.13
2018-03-26T07:41:56.716Z,17.27
2018-03-26T07:44:25.756Z,21.90
2018-03-26T07:46:54.804Z,16.57
2018-03-26T07:49:23.814Z,24.80
2018-03-26T07:51:52.754Z,15.33
2018-03-26T07:54:21.665Z,17.70
2018-03-26T07:56:50.447Z,16.50
2018-03-26T07:59:19.412Z,14.20
2018-03-26T08:01:48.620Z,12.90
2018-03-26T08:04:18.212Z,13.40
2018-03-26T08:06:47.872Z,14.50
2018-03-26T08:09:16.726Z,13.30
2018-03-26T08:11:46.656Z,13.03
2018-03-26T08:14:15.654Z,11.43
2018-03-26T08:16:44.534Z,12.23
2018-03-26T08:19:13.660Z,13.93
2018-03-26T08:21:42.665Z,12.77
2018-03-26T08:24:11.564Z,11.00
2018-03-26T08:26:40.811Z,12.30
2018-03-26T08:29:10.495Z,13.37
2018-03-26T08:31:40.115Z,12.30
2018-03-26T08:34:10.994Z,16.67
2018-03-26T08:36:40.573Z,16.03
2018-03-26T08:39:09.434Z,13.43
2018-03-26T08:41:38.421Z,13.40
2018-03-26T08:44:07.613Z,8.10
2018-03-26T08:46:43.817Z,7.13
2018-03-26T08:49:12.748Z,6.77
2018-03-26T08:51:41.696Z,9.07
2018-03-26T08:54:10.569Z,7.57
2018-03-26T08:56:39.445Z,7.50
2018-03-26T08:59:08.237Z,5.10
2018-03-26T09:01:37.990Z,6.33
2018-03-26T09:04:06.953Z,8.27
2018-03-26T09:06:35.894Z,7.70
2018-03-26T09:09:04.885Z,7.30
2018-03-26T09:11:33.863Z,8.27
2018-03-26T09:14:03.171Z,8.80
2018-03-26T09:16:32.103Z,5.77
2018-03-26T09:19:01.284Z,7.03
2018-03-26T09:21:30.588Z,6.63
2018-03-26T09:23:59.458Z,6.70
2018-03-26T09:26:34.636Z,6.27
2018-03-26T09:29:03.937Z,6.60
2018-03-26T09:31:32.968Z,6.20
2018-03-26T09:34:01.777Z,5.77
2018-03-26T09:36:30.760Z,6.80
2018-03-26T09:38:59.704Z,5.87
2018-03-26T09:41:29.507Z,6.93
2018-03-26T09:43:59.438Z,8.40
2018-03-26T09:46:28.990Z,6.20
2018-03-26T09:48:57.997Z,6.77
2018-03-26T09:51:26.833Z,6.53
2018-03-26T09:53:56.529Z,6.37
2018-03-26T09:56:26.077Z,6.70
2018-03-26T09:58:54.880Z,6.53
2018-03-26T10:01:23.954Z,6.80
2018-03-26T10:03:53.078Z,5.90
2018-03-26T10:06:21.967Z,6.10
2018-03-26T10:08:50.898Z,6.77
2018-03-26T10:11:20.756Z,5.33
2018-03-26T10:13:49.570Z,7.03
2018-03-26T10:16:18.399Z,7.07
2018-03-26T10:18:48.065Z,6.90
2018-03-26T10:21:16.882Z,6.00
2018-03-26T10:23:46.566Z,5.93
2018-03-26T10:26:15.892Z,6.97
2018-03-26T10:28:45.175Z,6.50
2018-03-26T10:31:14.055Z,6.40
2018-03-26T10:33:43.025Z,5.97
2018-03-26T10:36:11.852Z,7.53
2018-03-26T10:38:40.704Z,6.13
2018-03-26T10:41:09.578Z,5.80
2018-03-26T10:43:39.132Z,7.93
2018-03-26T10:46:08.041Z,7.00
2018-03-26T10:48:37.186Z,6.67
2018-03-26T10:51:06.460Z,5.47
2018-03-26T10:53:36.300Z,5.93
2018-03-26T10:56:05.119Z,7.20
2018-03-26T10:58:34.055Z,6.43
2018-03-26T11:01:03.709Z,7.07
2018-03-26T11:03:32.495Z,6.33
2018-03-26T11:06:01.335Z,6.97
2018-03-26T11:08:30.490Z,6.03
2018-03-26T11:10:59.477Z,6.87
2018-03-26T11:13:28.296Z,7.13
2018-03-26T11:15:59.172Z,9.30
2018-03-26T11:18:28.126Z,7.30
2018-03-26T11:20:56.995Z,6.83
2018-03-26T11:23:25.939Z,8.07
2018-03-26T11:25:55.532Z,5.97
2018-03-26T11:28:25.128Z,6.80
2018-03-26T11:30:54.696Z,7.07
2018-03-26T11:33:24.312Z,8.57
2018-03-26T11:35:53.530Z,7.90
2018-03-26T11:38:22.322Z,7.70
2018-03-26T11:40:51.244Z,8.07
2018-03-26T11:43:20.107Z,6.67
2018-03-26T11:45:49.779Z,6.53
2018-03-26T11:48:18.616Z,7.27
2018-03-26T11:50:48.396Z,8.07
2018-03-26T11:53:17.286Z,6.37
2018-03-26T11:55:47.154Z,6.07
2018-03-26T11:58:16.035Z,6.53
2018-03-26T12:00:46.176Z,6.43
2018-03-26T12:03:15.221Z,7.33
2018-03-26T12:05:44.905Z,6.97
2018-03-26T12:08:13.799Z,5.83
2018-03-26T12:10:42.600Z,7.27
2018-03-26T12:13:11.428Z,7.73
2018-03-26T12:15:40.215Z,7.70
2018-03-26T12:18:09.257Z,6.40
2018-03-26T12:20:50.073Z,5.30
2018-03-26T12:23:31.480Z,5.90
2018-03-26T12:26:01.663Z,6.80
2018-03-26T12:28:42.548Z,6.37
2018-03-26T12:31:12.075Z,6.33
2018-03-26T12:33:52.541Z,6.33
2018-03-26T12:36:22.465Z,9.87
2018-03-26T12:38:51.284Z,6.77
2018-03-26T12:41:20.477Z,6.50
2018-03-26T12:43:49.349Z,5.57
2018-03-26T12:46:30.492Z,5.50
2018-03-26T12:48:59.304Z,7.10
2018-03-26T12:51:40.024Z,6.30
2018-03-26T12:54:09.940Z,5.13
2018-03-26T12:56:39.593Z,6.50
2018-03-26T12:59:08.685Z,6.53
2018-03-26T13:01:53.031Z,6.93
2018-03-26T13:04:24.163Z,8.03
2018-03-26T13:06:53.957Z,6.20
2018-03-26T13:09:24.086Z,5.83
2018-03-26T13:11:54.010Z,5.80
2018-03-26T13:14:25.096Z,6.67
2018-03-26T13:16:55.789Z,7.87
2018-03-26T13:19:28.053Z,9.67
2018-03-26T13:21:58.970Z,8.67
2018-03-26T13:24:29.957Z,11.37
2018-03-26T13:26:58.792Z,12.63
2018-03-26T13:29:29.890Z,12.40
2018-03-26T13:31:59.656Z,14.63
2018-03-26T13:34:30.453Z,14.73
2018-03-26T13:37:01.225Z,10.57
2018-03-26T13:39:31.506Z,7.27
2018-03-26T13:42:01.562Z,9.07
2018-03-26T13:44:32.243Z,9.90
2018-03-26T13:47:01.094Z,11.30
2018-03-26T13:49:33.400Z,5.50
2018-03-26T13:52:06.300Z,11.90
2018-03-26T13:54:37.553Z,9.10
2018-03-26T13:57:08.329Z,7.67
2018-03-26T13:59:39.155Z,8.37
2018-03-26T14:02:09.298Z,11.00
2018-03-26T14:04:40.781Z,9.70
2018-03-26T14:07:11.443Z,6.17
2018-03-26T14:09:57.613Z,15.13
2018-03-26T14:12:38.968Z,15.30
2018-03-26T14:15:21.406Z,14.53
2018-03-26T14:18:08.959Z,22.20
2018-03-26T14:20:39.856Z,20.13
2018-03-26T14:23:10.408Z,17.93
2018-03-26T14:25:41.299Z,18.90
2018-03-26T14:28:11.404Z,24.70
2018-03-26T14:30:40.884Z,18.77
2018-03-26T14:33:10.667Z,11.07
2018-03-26T14:35:43.868Z,14.80
2018-03-26T14:38:13.758Z,17.77
2018-03-26T14:40:42.670Z,24.77
2018-03-26T14:43:12.597Z,22.53
2018-03-26T14:45:41.524Z,31.70
2018-03-26T14:48:15.922Z,54.17
2018-03-26T14:50:47.368Z,31.47
2018-03-26T14:53:17.594Z,29.27
2018-03-26T14:55:47.737Z,28.63
2018-03-26T14:58:17.111Z,52.27
2018-03-26T15:00:46.928Z,55.27
2018-03-26T15:03:17.352Z,86.30
2018-03-26T15:05:47.339Z,28.87
2018-03-26T15:08:17.089Z,22.70
2018-03-26T15:10:46.334Z,38.57
2018-03-26T15:13:15.625Z,31.87
2018-03-26T15:15:44.542Z,30.83
2018-03-26T15:18:13.395Z,36.63
2018-03-26T15:20:42.990Z,13.77
2018-03-26T15:23:12.517Z,9.63
2018-03-26T15:25:41.327Z,9.90
2018-03-26T15:28:10.271Z,11.67
2018-03-26T15:30:39.322Z,14.80
2018-03-26T15:33:08.216Z,11.20
2018-03-26T15:35:37.124Z,9.43
2018-03-26T15:38:07.072Z,8.10
2018-03-26T15:40:35.887Z,9.90
2018-03-26T15:43:04.856Z,9.77
2018-03-26T15:45:33.722Z,12.33
2018-03-26T15:48:02.998Z,13.63
2018-03-26T15:50:32.303Z,12.03
2018-03-26T15:53:01.292Z,12.87
2018-03-26T15:55:30.327Z,15.93
2018-03-26T15:57:59.570Z,77.43
2018-03-26T16:00:28.778Z,55.30
2018-03-26T16:03:03.114Z,28.00
2018-03-26T16:05:32.040Z,21.03
2018-03-26T16:08:01.659Z,14.57
2018-03-26T16:10:31.252Z,14.13
2018-03-26T16:13:00.973Z,12.47
2018-03-26T16:15:30.674Z,11.17
2018-03-26T16:18:00.289Z,7.57
2018-03-26T16:20:29.885Z,10.40
2018-03-26T16:22:59.874Z,9.53
2018-03-26T16:25:28.700Z,10.77
2018-03-26T16:27:57.605Z,13.07
2018-03-26T16:30:27.204Z,17.83
2018-03-26T16:32:56.089Z,13.23
2018-03-26T16:35:25.914Z,7.40
2018-03-26T16:37:56.087Z,8.93
2018-03-26T16:40:25.012Z,11.33
2018-03-26T16:42:54.268Z,16.20
2018-03-26T16:45:24.011Z,26.97
2018-03-26T16:47:53.843Z,15.80
2018-03-26T16:50:23.805Z,15.40
2018-03-26T16:52:52.898Z,20.70
2018-03-26T16:55:21.835Z,30.43
2018-03-26T16:57:51.029Z,15.53
2018-03-26T17:00:19.910Z,25.30
2018-03-26T17:02:48.891Z,23.60
2018-03-26T17:05:18.712Z,24.60
2018-03-26T17:07:47.589Z,15.57
2018-03-26T17:10:16.432Z,15.67
2018-03-26T17:12:45.346Z,21.73
2018-03-26T17:15:14.336Z,27.30
2018-03-26T17:17:43.274Z,26.53
2018-03-26T17:20:12.270Z,27.67
2018-03-26T17:22:41.083Z,24.50
2018-03-26T17:25:13.657Z,18.30
2018-03-26T17:27:42.646Z,22.93
2018-03-26T17:30:11.557Z,20.40
2018-03-26T17:32:40.426Z,17.17
2018-03-26T17:35:10.031Z,12.67
2018-03-26T17:37:38.865Z,7.27
2018-03-26T17:40:07.825Z,8.63
2018-03-26T17:42:37.537Z,11.07
2018-03-26T17:45:06.464Z,7.63
2018-03-26T17:47:35.407Z,6.97
2018-03-26T17:50:04.554Z,8.67
2018-03-26T17:52:33.799Z,9.63
2018-03-26T17:55:02.577Z,8.77
2018-03-26T17:57:31.536Z,11.50
2018-03-26T18:00:00.438Z,17.73
2018-03-26T18:02:30.576Z,6.90
2018-03-26T18:04:59.613Z,9.20
2018-03-26T18:07:28.475Z,9.27
2018-03-26T18:09:57.360Z,8.57
2018-03-26T18:12:26.315Z,9.47
2018-03-26T18:14:56.494Z,9.77
2018-03-26T18:17:28.706Z,11.13
2018-03-26T18:19:57.847Z,10.30
2018-03-26T18:22:27.450Z,9.13
2018-03-26T18:24:56.859Z,11.30
2018-03-26T18:27:26.290Z,11.53
2018-03-26T18:29:56.162Z,8.40
2018-03-26T18:32:25.846Z,9.63
2018-03-26T18:34:56.070Z,13.17
2018-03-26T18:37:25.203Z,7.90
2018-03-26T18:39:54.451Z,7.47
2018-03-26T18:42:23.949Z,6.77
2018-03-26T18:44:53.576Z,8.40
2018-03-26T18:47:23.229Z,8.63
2018-03-26T18:49:52.512Z,6.77
2018-03-26T18:52:22.968Z,6.83
2018-03-26T18:54:53.882Z,6.90
2018-03-26T18:57:23.084Z,7.33
2018-03-26T18:59:52.560Z,5.23
2018-03-26T19:02:22.283Z,5.13
2018-03-26T19:04:52.291Z,5.57
2018-03-26T19:07:21.707Z,5.97
2018-03-26T19:09:51.642Z,5.70
2018-03-26T19:12:21.132Z,5.93
2018-03-26T19:14:51.699Z,7.00
2018-03-26T19:17:22.036Z,9.23
2018-03-26T19:19:51.153Z,11.13
2018-03-26T19:22:20.131Z,8.07
2018-03-26T19:24:49.801Z,6.10
2018-03-26T19:27:18.791Z,5.87
2018-03-26T19:29:48.620Z,7.13
2018-03-26T19:32:17.484Z,7.30
2018-03-26T19:34:46.646Z,7.17
2018-03-26T19:37:15.740Z,10.57
2018-03-26T19:39:45.676Z,11.07
2018-03-26T19:42:14.832Z,11.97
2018-03-26T19:44:43.759Z,10.77
2018-03-26T19:47:12.731Z,8.83
2018-03-26T19:49:42.099Z,9.13
2018-03-26T19:52:11.396Z,7.43
2018-03-26T19:54:41.111Z,7.40
2018-03-26T19:57:11.164Z,7.87
2018-03-26T19:59:40.329Z,8.90
2018-03-26T20:02:10.167Z,11.83
2018-03-26T20:04:39.198Z,11.00
2018-03-26T20:07:08.084Z,8.57
2018-03-26T20:09:36.962Z,10.03
2018-03-26T20:12:06.597Z,10.17
2018-03-26T20:14:36.241Z,24.13
2018-03-26T20:17:05.246Z,10.30
2018-03-26T20:19:34.429Z,7.77
2018-03-26T20:22:03.438Z,9.30
2018-03-26T20:24:32.184Z,10.47
2018-03-26T20:27:01.132Z,7.57
2018-03-26T20:29:30.091Z,7.23
2018-03-26T20:31:58.957Z,9.77
2018-03-26T20:34:27.810Z,10.47
2018-03-26T20:36:58.090Z,7.43
2018-03-26T20:39:28.271Z,7.30
2018-03-26T20:41:58.134Z,15.20
2018-03-26T20:44:27.109Z,15.43
2018-03-26T20:46:56.097Z,6.83
2018-03-26T20:49:25.138Z,6.10
2018-03-26T20:51:54.259Z,6.73
2018-03-26T20:54:23.140Z,6.50
2018-03-26T20:56:54.346Z,9.60
2018-03-26T20:59:23.276Z,11.20
2018-03-26T21:01:52.191Z,11.40
2018-03-26T21:04:21.098Z,11.03
2018-03-26T21:06:49.962Z,13.03
2018-03-26T21:09:19.072Z,16.63
2018-03-26T21:11:48.489Z,17.30
2018-03-26T21:14:17.345Z,10.30
2018-03-26T21:16:46.463Z,16.17
2018-03-26T21:19:15.363Z,21.57
2018-03-26T21:21:44.273Z,19.43
2018-03-26T21:24:13.167Z,15.53
2018-03-26T21:26:42.094Z,23.47
2018-03-26T21:29:11.876Z,23.93
2018-03-26T21:31:40.918Z,25.40
2018-03-26T21:34:10.060Z,15.63
2018-03-26T21:36:39.096Z,13.33
2018-03-26T21:39:08.796Z,11.93
2018-03-26T21:41:37.654Z,15.23
2018-03-26T21:44:06.463Z,16.40
2018-03-26T21:46:35.405Z,11.90
2018-03-26T21:49:04.969Z,18.03
2018-03-26T21:51:35.090Z,22.30
2018-03-26T21:54:04.211Z,19.60
2018-03-26T21:56:33.205Z,14.07
2018-03-26T21:59:01.993Z,14.50
2018-03-26T22:01:30.786Z,12.47
2018-03-26T22:03:59.565Z,11.70
2018-03-26T22:06:28.412Z,16.27
2018-03-26T22:08:57.209Z,14.50
2018-03-26T22:11:26.220Z,14.00
2018-03-26T22:13:54.998Z,12.67
2018-03-26T22:16:27.817Z,12.70
2018-03-26T22:18:56.957Z,12.20
2018-03-26T22:21:25.739Z,10.90
2018-03-26T22:23:55.301Z,12.43
2018-03-26T22:26:24.137Z,11.17
2018-03-26T22:28:53.745Z,12.23
2018-03-26T22:31:23.510Z,14.57
2018-03-26T22:33:52.604Z,13.60
2018-03-26T22:36:21.474Z,15.00
2018-03-26T22:38:50.573Z,16.03
2018-03-26T22:41:19.816Z,14.70
2018-03-26T22:43:49.457Z,18.27
2018-03-26T22:46:18.356Z,15.70
2018-03-26T22:48:47.438Z,16.67
2018-03-26T22:51:16.256Z,16.33
2018-03-26T22:53:45.235Z,15.30
2018-03-26T22:56:14.333Z,17.33
2018-03-26T22:58:43.277Z,20.77
2018-03-26T23:01:12.038Z,19.50
2018-03-26T23:03:40.862Z,19.10
2018-03-26T23:06:09.743Z,19.30
2018-03-26T23:08:38.579Z,14.40
2018-03-26T23:11:07.520Z,13.57
2018-03-26T23:13:36.505Z,13.70
2018-03-26T23:16:05.226Z,15.47
2018-03-26T23:18:34.018Z,16.57
2018-03-26T23:21:02.871Z,15.10
2018-03-26T23:23:32.473Z,17.03
2018-03-26T23:26:01.258Z,13.87
2018-03-26T23:28:30.866Z,17.30
2018-03-26T23:31:00.457Z,16.87
2018-03-26T23:33:29.292Z,15.43
2018-03-26T23:35:59.361Z,14.57
2018-03-26T23:38:28.229Z,17.07
2018-03-26T23:40:56.965Z,17.87
2018-03-26T23:43:25.809Z,14.40
2018-03-26T23:45:55.093Z,14.63
2018-03-26T23:48:23.927Z,13.37
2018-03-26T23:50:52.868Z,16.07
2018-03-26T23:53:21.686Z,15.67
2018-03-26T23:55:50.736Z,16.47
2018-03-26T23:58:19.737Z,15.97
